createdAt,value
2022-09-12T00:01:11.418Z,100016.00
2022-09-12T00:03:38.894Z,100018.56
2022-09-12T00:06:23.092Z,100021.47
2022-09-12T00:08:50.965Z,100016.84
2022-09-12T00:11:18.141Z,100014.34
2022-09-12T00:13:44.730Z,100021.47
2022-09-12T00:16:32.090Z,100015.84
2022-09-12T00:18:59.521Z,100017.25
2022-09-12T00:21:27.107Z,100017.41
2022-09-12T00:23:54.164Z,100013.19
2022-09-12T00:26:22.037Z,100007.97
2022-09-12T00:28:49.452Z,100008.97
2022-09-12T00:31:18.542Z,100015.41
2022-09-12T00:33:45.408Z,100004.03
2022-09-12T00:36:24.084Z,100013.28
2022-09-12T00:38:54.702Z,100001.66
2022-09-12T00:41:27.266Z,99998.25
2022-09-12T00:44:16.290Z,100007.50
2022-09-12T00:46:47.225Z,99997.41
2022-09-12T00:49:16.653Z,99989.56
2022-09-12T00:51:51.316Z,99985.47
2022-09-12T00:54:22.641Z,99986.44
2022-09-12T00:56:52.940Z,99991.06
2022-09-12T00:59:27.639Z,99988.66
2022-09-12T01:01:55.104Z,99983.34
2022-09-12T01:04:25.566Z,99978.28
2022-09-12T01:06:52.806Z,99979.25
2022-09-12T01:09:22.465Z,99986.56
2022-09-12T01:11:51.313Z,99987.53
2022-09-12T01:14:18.731Z,99979.53
2022-09-12T01:16:47.205Z,99986.81
2022-09-12T01:19:38.671Z,99982.72
2022-09-12T01:22:20.212Z,99986.50
2022-09-12T01:24:59.199Z,99987.50
2022-09-12T01:27:28.382Z,99980.31
2022-09-12T01:30:22.692Z,99982.53
2022-09-12T01:33:22.046Z,99978.31
2022-09-12T01:35:57.313Z,99982.66
2022-09-12T01:38:36.353Z,99980.72
2022-09-12T01:41:44.297Z,99980.44
2022-09-12T01:44:38.427Z,99975.22
2022-09-12T01:47:24.038Z,99980.69
2022-09-12T01:50:07.148Z,99968.22
2022-09-12T01:52:39.668Z,99965.69
2022-09-12T01:55:13.364Z,99967.47
2022-09-12T01:57:45.534Z,99960.47
2022-09-12T02:00:13.263Z,99964.13
2022-09-12T02:03:03.207Z,99965.50
2022-09-12T02:05:38.987Z,99958.19
2022-09-12T02:08:14.434Z,99954.84
2022-09-12T02:10:47.273Z,99959.44
2022-09-12T02:13:20.366Z,99955.09
2022-09-12T02:15:50.913Z,99955.22
2022-09-12T02:18:19.837Z,99954.09
2022-09-12T02:20:49.194Z,99952.56
2022-09-12T02:23:28.878Z,99948.63
2022-09-12T02:25:59.876Z,99949.56
2022-09-12T02:28:33.714Z,99949.88
2022-09-12T02:31:19.281Z,99949.34
2022-09-12T02:33:45.756Z,99949.13
2022-09-12T02:36:25.588Z,99953.13
2022-09-12T02:38:52.643Z,99947.69
2022-09-12T02:41:20.843Z,99948.78
2022-09-12T02:43:50.113Z,99943.59
2022-09-12T02:46:23.302Z,99943.84
2022-09-12T02:48:49.840Z,99933.19
2022-09-12T02:51:21.516Z,99932.50
2022-09-12T02:53:50.340Z,99925.47
2022-09-12T02:56:29.468Z,99923.19
2022-09-12T02:59:02.008Z,99929.25
2022-09-12T03:01:53.420Z,99922.50
2022-09-12T03:04:47.346Z,99918.13
2022-09-12T03:07:31.582Z,99921.53
2022-09-12T03:10:24.083Z,99918.41
2022-09-12T03:13:11.468Z,99912.47
2022-09-12T03:16:11.958Z,99913.03
2022-09-12T03:18:55.894Z,99910.59
2022-09-12T03:21:31.347Z,99916.06
2022-09-12T03:24:04.452Z,99911.84
2022-09-12T03:26:35.193Z,99909.31
2022-09-12T03:29:05.122Z,99906.53
2022-09-12T03:31:31.889Z,99908.47
2022-09-12T03:34:00.078Z,99911.53
2022-09-12T03:36:28.889Z,99911.81
2022-09-12T03:38:56.157Z,99911.94
2022-09-12T03:41:22.889Z,99908.53
2022-09-12T03:43:49.434Z,99905.03
2022-09-12T03:46:15.975Z,99906.97
2022-09-12T03:48:42.597Z,99905.28
2022-09-12T03:51:10.942Z,99911.72
2022-09-12T03:53:37.807Z,99917.03
2022-09-12T03:56:11.861Z,99914.63
2022-09-12T03:58:38.762Z,99909.19
2022-09-12T04:01:12.533Z,99907.75
2022-09-12T04:03:43.938Z,99913.06
2022-09-12T04:06:12.616Z,99907.75
2022-09-12T04:08:39.538Z,99906.91
2022-09-12T04:11:09.039Z,99908.84
2022-09-12T04:13:36.589Z,99916.84
2022-09-12T04:16:04.554Z,99916.09
2022-09-12T04:18:31.374Z,99906.44
2022-09-12T04:20:58.262Z,99907.41
2022-09-12T04:23:25.012Z,99910.19
2022-09-12T04:25:59.960Z,99907.94
2022-09-12T04:28:29.011Z,99908.66
2022-09-12T04:30:56.524Z,99908.78
2022-09-12T04:33:23.239Z,99898.25
2022-09-12T04:35:50.365Z,99899.22
2022-09-12T04:38:16.925Z,99893.91
2022-09-12T04:40:43.560Z,99897.56
2022-09-12T04:43:14.210Z,99895.00
2022-09-12T04:45:41.264Z,99894.16
2022-09-12T04:48:07.802Z,99888.84
2022-09-12T04:50:34.276Z,99886.31
2022-09-12T04:53:00.856Z,99889.13
2022-09-12T04:55:27.643Z,99888.25
2022-09-12T04:57:54.158Z,99886.44
2022-09-12T05:00:20.673Z,99884.75
2022-09-12T05:02:47.481Z,99891.91
2022-09-12T05:05:14.013Z,99892.72
2022-09-12T05:07:40.886Z,99897.22
2022-09-12T05:10:08.093Z,99890.06
2022-09-12T05:12:34.595Z,99897.91
2022-09-12T05:15:01.113Z,99889.94
2022-09-12T05:17:29.741Z,99893.44
2022-09-12T05:19:56.293Z,99892.47
2022-09-12T05:22:22.957Z,99895.13
2022-09-12T05:24:50.777Z,99887.16
2022-09-12T05:27:17.870Z,99891.50
2022-09-12T05:29:44.407Z,99882.56
2022-09-12T05:32:12.510Z,99881.59
2022-09-12T05:34:40.256Z,99886.78
2022-09-12T05:37:06.775Z,99881.34
2022-09-12T05:39:33.723Z,99875.03
2022-09-12T05:42:00.231Z,99887.25
2022-09-12T05:44:26.842Z,99870.28
2022-09-12T05:46:53.699Z,99866.53
2022-09-12T05:49:21.573Z,99869.06
2022-09-12T05:51:48.437Z,99873.41
2022-09-12T05:54:18.013Z,99879.59
2022-09-12T05:56:45.520Z,99884.66
2022-09-12T05:59:15.594Z,99888.03
2022-09-12T06:01:42.752Z,99891.25
2022-09-12T06:04:09.506Z,99885.69
2022-09-12T06:06:39.154Z,99887.25
2022-09-12T06:09:06.873Z,99880.69
2022-09-12T06:11:35.582Z,99887.44
2022-09-12T06:14:02.342Z,99890.53
2022-09-12T06:16:31.334Z,99887.63
2022-09-12T06:19:02.645Z,99888.94
2022-09-12T06:21:31.319Z,99887.56
2022-09-12T06:23:59.038Z,99891.50
2022-09-12T06:26:26.515Z,99884.81
2022-09-12T06:28:56.105Z,99887.09
2022-09-12T06:31:29.372Z,99877.72
2022-09-12T06:33:57.444Z,99885.78
2022-09-12T06:36:27.195Z,99883.56
2022-09-12T06:38:58.440Z,99882.91
2022-09-12T06:41:26.216Z,99887.41
2022-09-12T06:43:53.621Z,99883.09
2022-09-12T06:46:21.037Z,99880.75
2022-09-12T06:48:48.250Z,99894.34
2022-09-12T06:51:17.215Z,99892.13
2022-09-12T06:53:45.391Z,99886.22
2022-09-12T06:56:13.590Z,99884.84
2022-09-12T06:58:41.561Z,99884.44
2022-09-12T07:01:19.727Z,99890.34
2022-09-12T07:03:55.171Z,99885.41
2022-09-12T07:06:24.378Z,99888.38
2022-09-12T07:08:51.009Z,99882.63
2022-09-12T07:11:23.767Z,99894.72
2022-09-12T07:13:53.200Z,99896.16
2022-09-12T07:16:20.444Z,99886.88
2022-09-12T07:19:09.240Z,99884.91
2022-09-12T07:21:39.792Z,99884.38
2022-09-12T07:24:09.523Z,99876.78
2022-09-12T07:26:36.332Z,99884.34
2022-09-12T07:29:32.231Z,99879.44
2022-09-12T07:31:49.776Z,99876.06
2022-09-12T07:34:17.657Z,99872.78
2022-09-12T07:36:44.222Z,99871.25
2022-09-12T07:39:10.953Z,99872.38
2022-09-12T07:41:37.433Z,99870.94
2022-09-12T07:44:06.732Z,99870.50
2022-09-12T07:46:33.542Z,99881.44
2022-09-12T07:49:01.383Z,99883.00
2022-09-12T07:51:29.649Z,99887.19
2022-09-12T07:53:56.672Z,99897.59
2022-09-12T07:56:29.323Z,99897.47
2022-09-12T07:58:56.968Z,99892.94
2022-09-12T08:01:23.866Z,99894.66
2022-09-12T08:03:55.364Z,99887.59
2022-09-12T08:06:25.695Z,99890.13
2022-09-12T08:08:57.070Z,99889.44
2022-09-12T08:11:25.067Z,99890.13
2022-09-12T08:13:55.622Z,99893.50
2022-09-12T08:16:25.476Z,99890.56
2022-09-12T08:18:52.021Z,99888.31
2022-09-12T08:21:25.316Z,99890.66
2022-09-12T08:23:54.180Z,99891.50
2022-09-12T08:26:20.959Z,99896.94
2022-09-12T08:28:48.201Z,99893.38
2022-09-12T08:31:17.075Z,99892.50
2022-09-12T08:33:44.200Z,99882.88
2022-09-12T08:36:15.068Z,99890.16
2022-09-12T08:38:43.997Z,99885.03
2022-09-12T08:41:14.869Z,99873.72
2022-09-12T08:44:07.137Z,99872.16
2022-09-12T08:46:45.277Z,99877.31
2022-09-12T08:49:18.625Z,99878.06
2022-09-12T08:51:45.370Z,99878.16
2022-09-12T08:54:39.295Z,99879.81
2022-09-12T08:57:06.952Z,99877.06
2022-09-12T08:59:42.848Z,99871.88
2022-09-12T09:02:27.603Z,99880.59
2022-09-12T09:05:17.939Z,99879.59
2022-09-12T09:08:13.684Z,99882.28
2022-09-12T09:11:13.023Z,99875.06
2022-09-12T09:14:17.319Z,99879.44
2022-09-12T09:16:46.794Z,99886.19
2022-09-12T09:19:30.586Z,99890.31
2022-09-12T09:22:06.275Z,99892.69
2022-09-12T09:24:56.141Z,99890.16
2022-09-12T09:27:40.843Z,99889.69
2022-09-12T09:30:19.478Z,99884.47
2022-09-12T09:32:50.589Z,99885.03
2022-09-12T09:35:19.420Z,99881.03
2022-09-12T09:38:00.448Z,99873.69
2022-09-12T09:40:37.157Z,99875.97
2022-09-12T09:43:24.513Z,99869.66
2022-09-12T09:45:53.329Z,99865.28
2022-09-12T09:48:25.815Z,99865.84
2022-09-12T09:50:52.867Z,99864.41
2022-09-12T09:53:31.208Z,99856.91
2022-09-12T09:56:02.416Z,99858.84
2022-09-12T09:58:34.373Z,99859.88
2022-09-12T10:01:21.173Z,99861.81
2022-09-12T10:03:53.107Z,99847.59
2022-09-12T10:06:19.813Z,99853.97
2022-09-12T10:08:48.588Z,99851.63
2022-09-12T10:11:28.773Z,99851.16
2022-09-12T10:14:03.189Z,99855.69
2022-09-12T10:16:29.666Z,99844.94
2022-09-12T10:18:58.630Z,99848.94
2022-09-12T10:21:30.228Z,99844.22
2022-09-12T10:24:22.776Z,99845.84
2022-09-12T10:26:56.801Z,99847.16
2022-09-12T10:29:33.627Z,99848.50
2022-09-12T10:32:04.931Z,99847.66
2022-09-12T10:34:37.147Z,99841.75
2022-09-12T10:37:09.987Z,99839.22
2022-09-12T10:39:38.741Z,99836.31
2022-09-12T10:42:05.860Z,99825.09
2022-09-12T10:44:34.748Z,99825.34
2022-09-12T10:47:20.312Z,99822.78
2022-09-12T10:49:46.947Z,99818.50
2022-09-12T10:52:18.256Z,99817.78
2022-09-12T10:54:45.411Z,99812.31
2022-09-12T10:57:22.965Z,99812.44
2022-09-12T10:59:55.786Z,99816.84
2022-09-12T11:02:59.216Z,99807.09
2022-09-12T11:05:43.970Z,99807.34
2022-09-12T11:08:31.706Z,99800.25
2022-09-12T11:11:13.808Z,99799.56
2022-09-12T11:13:50.614Z,99800.78
2022-09-12T11:16:43.046Z,99798.50
2022-09-12T11:19:31.321Z,99802.91
2022-09-12T11:22:22.042Z,99793.94
2022-09-12T11:25:12.323Z,99776.41
2022-09-12T11:27:50.916Z,99781.41
2022-09-12T11:30:18.106Z,99786.50
2022-09-12T11:32:56.452Z,99784.09
2022-09-12T11:35:27.970Z,99771.75
2022-09-12T11:38:00.436Z,99767.31
2022-09-12T11:40:56.582Z,99766.41
2022-09-12T11:43:33.330Z,99760.91
2022-09-12T11:46:10.312Z,99761.94
2022-09-12T11:49:03.107Z,99760.66
2022-09-12T11:51:39.853Z,99759.63
2022-09-12T11:54:36.200Z,99763.25
2022-09-12T11:57:18.548Z,99758.09
2022-09-12T11:59:51.945Z,99764.59
2022-09-12T12:02:36.809Z,99753.91
2022-09-12T12:05:06.571Z,99756.84
2022-09-12T12:07:45.642Z,99758.28
2022-09-12T12:10:27.469Z,99755.41
2022-09-12T12:12:56.232Z,99751.81
2022-09-12T12:15:25.129Z,99759.66
2022-09-12T12:18:17.604Z,99746.63
2022-09-12T12:20:44.218Z,99751.97
2022-09-12T12:23:31.366Z,99744.41
2022-09-12T12:26:00.427Z,99741.78
2022-09-12T12:28:42.269Z,99742.31
2022-09-12T12:31:10.620Z,99736.38
2022-09-12T12:33:37.220Z,99731.75
2022-09-12T12:36:09.957Z,99730.38
2022-09-12T12:38:41.107Z,99716.41
2022-09-12T12:41:16.742Z,99718.41
2022-09-12T12:43:54.564Z,99714.63
2022-09-12T12:46:22.685Z,99713.84
2022-09-12T12:49:11.194Z,99709.44
2022-09-12T12:51:43.815Z,99716.06
2022-09-12T12:54:28.801Z,99706.97
2022-09-12T12:57:13.398Z,99705.06
2022-09-12T13:00:27.815Z,99703.97
2022-09-12T13:03:06.633Z,99706.19
2022-09-12T13:05:49.187Z,99704.78
2022-09-12T13:08:18.731Z,99700.38
2022-09-12T13:11:08.329Z,99691.16
2022-09-12T13:13:41.645Z,99690.91
2022-09-12T13:16:11.009Z,99687.34
2022-09-12T13:18:49.638Z,99688.78
2022-09-12T13:21:18.017Z,99689.41
2022-09-12T13:23:45.311Z,99679.63
2022-09-12T13:26:23.222Z,99670.09
2022-09-12T13:28:51.534Z,99668.56
2022-09-12T13:31:25.555Z,99661.75
2022-09-12T13:33:58.980Z,99668.97
2022-09-12T13:36:31.549Z,99661.97
2022-09-12T13:39:27.353Z,99663.66
2022-09-12T13:42:03.290Z,99664.00
2022-09-12T13:44:32.923Z,99655.41
2022-09-12T13:47:01.824Z,99653.88
2022-09-12T13:49:37.890Z,99650.38
2022-09-12T13:52:04.362Z,99649.69
2022-09-12T13:54:32.978Z,99645.81
2022-09-12T13:56:59.898Z,99632.97
2022-09-12T13:59:26.482Z,99639.94
2022-09-12T14:01:53.091Z,99637.34
2022-09-12T14:04:44.173Z,99631.09
2022-09-12T14:07:20.400Z,99625.63
2022-09-12T14:09:55.022Z,99620.59
2022-09-12T14:12:25.970Z,99622.94
2022-09-12T14:14:53.512Z,99613.00
2022-09-12T14:17:39.681Z,99606.66
2022-09-12T14:20:18.720Z,99601.31
2022-09-12T14:22:49.346Z,99611.59
2022-09-12T14:25:20.678Z,99613.88
2022-09-12T14:27:52.581Z,99613.16
2022-09-12T14:30:34.342Z,99613.13
2022-09-12T14:33:03.695Z,99606.78
2022-09-12T14:35:30.704Z,99602.09
2022-09-12T14:37:57.287Z,99589.44
2022-09-12T14:40:24.174Z,99589.69
2022-09-12T14:42:53.102Z,99586.69
2022-09-12T14:45:30.974Z,99590.47
2022-09-12T14:47:58.925Z,99583.34
2022-09-12T14:50:29.221Z,99575.19
2022-09-12T14:53:23.911Z,99558.16
2022-09-12T14:55:59.546Z,99560.38
2022-09-12T14:58:28.289Z,99565.88
2022-09-12T15:00:59.001Z,99565.88
2022-09-12T15:03:32.228Z,99563.09
2022-09-12T15:06:00.166Z,99577.84
2022-09-12T15:08:26.914Z,99570.06
2022-09-12T15:10:53.767Z,99561.75
2022-09-12T15:13:23.434Z,99552.84
2022-09-12T15:15:53.572Z,99552.13
2022-09-12T15:18:21.963Z,99559.44
2022-09-12T15:20:52.919Z,99552.81
2022-09-12T15:23:43.163Z,99551.50
2022-09-12T15:26:13.365Z,99561.53
2022-09-12T15:28:40.014Z,99555.09
2022-09-12T15:31:12.752Z,99567.84
2022-09-12T15:33:39.553Z,99554.09
2022-09-12T15:36:14.438Z,99560.84
2022-09-12T15:38:40.985Z,99553.13
2022-09-12T15:41:19.448Z,99551.00
2022-09-12T15:43:47.177Z,99552.13
2022-09-12T15:46:15.294Z,99561.28
2022-09-12T15:48:41.915Z,99550.38
2022-09-12T15:51:20.198Z,99551.84
2022-09-12T15:53:48.514Z,99546.91
2022-09-12T15:56:17.436Z,99539.13
2022-09-12T15:58:57.595Z,99538.41
2022-09-12T16:01:24.684Z,99533.00
2022-09-12T16:03:51.401Z,99539.47
2022-09-12T16:06:17.957Z,99536.94
2022-09-12T16:08:44.626Z,99527.47
2022-09-12T16:11:18.379Z,99529.41
2022-09-12T16:13:45.031Z,99526.66
2022-09-12T16:16:11.650Z,99527.72
2022-09-12T16:18:41.983Z,99525.97
2022-09-12T16:21:12.757Z,99520.66
2022-09-12T16:23:45.802Z,99518.50
2022-09-12T16:26:12.347Z,99518.78
2022-09-12T16:28:39.261Z,99516.53
2022-09-12T16:31:08.904Z,99505.53
2022-09-12T16:33:38.332Z,99503.91
2022-09-12T16:36:10.506Z,99506.06
2022-09-12T16:38:48.502Z,99492.38
2022-09-12T16:41:17.100Z,99487.78
2022-09-12T16:43:44.439Z,99481.81
2022-09-12T16:46:13.749Z,99486.81
2022-09-12T16:48:50.879Z,99479.13
2022-09-12T16:51:21.328Z,99488.34
2022-09-12T16:53:48.791Z,99484.81
2022-09-12T16:56:15.500Z,99476.97
2022-09-12T16:58:42.450Z,99475.09
2022-09-12T17:01:21.370Z,99467.00
2022-09-12T17:03:48.153Z,99470.13
2022-09-12T17:06:19.012Z,99466.81
2022-09-12T17:08:48.425Z,99463.47
2022-09-12T17:11:16.620Z,99458.53
2022-09-12T17:14:04.449Z,99467.88
2022-09-12T17:16:34.154Z,99462.66
2022-09-12T17:19:00.987Z,99460.41
2022-09-12T17:21:27.670Z,99459.97
2022-09-12T17:23:54.411Z,99466.81
2022-09-12T17:26:21.005Z,99463.69
2022-09-12T17:28:47.594Z,99460.75
2022-09-12T17:31:15.041Z,99454.09
2022-09-12T17:33:42.103Z,99450.13
2022-09-12T17:36:15.337Z,99445.94
2022-09-12T17:38:43.545Z,99446.28
2022-09-12T17:41:19.186Z,99449.31
2022-09-12T17:43:47.688Z,99445.13
2022-09-12T17:46:14.802Z,99445.69
2022-09-12T17:48:41.831Z,99451.88
2022-09-12T17:51:13.581Z,99460.03
2022-09-12T17:53:43.044Z,99452.88
2022-09-12T17:56:11.036Z,99456.94
2022-09-12T17:58:37.796Z,99454.81
2022-09-12T18:01:25.432Z,99451.16
2022-09-12T18:03:56.714Z,99452.06
2022-09-12T18:06:24.486Z,99448.84
2022-09-12T18:08:51.035Z,99440.44
2022-09-12T18:11:17.703Z,99450.72
2022-09-12T18:13:44.696Z,99450.16
2022-09-12T18:16:13.864Z,99448.00
2022-09-12T18:18:40.617Z,99442.06
2022-09-12T18:21:10.371Z,99447.75
2022-09-12T18:23:37.126Z,99438.06
2022-09-12T18:26:09.717Z,99434.84
2022-09-12T18:28:39.076Z,99435.81
2022-09-12T18:31:11.247Z,99437.09
2022-09-12T18:33:38.035Z,99431.63
2022-09-12T18:36:06.026Z,99438.94
2022-09-12T18:38:33.175Z,99426.44
2022-09-12T18:41:08.270Z,99422.31
2022-09-12T18:43:35.303Z,99425.38
2022-09-12T18:46:10.435Z,99420.06
2022-09-12T18:48:37.197Z,99422.50
2022-09-12T18:51:08.102Z,99422.56
2022-09-12T18:53:36.783Z,99416.25
2022-09-12T18:56:04.772Z,99409.75
2022-09-12T18:58:31.251Z,99416.69
2022-09-12T19:00:58.647Z,99415.56
2022-09-12T19:03:25.261Z,99417.97
2022-09-12T19:05:52.139Z,99415.81
2022-09-12T19:08:18.674Z,99409.50
2022-09-12T19:10:45.260Z,99407.34
2022-09-12T19:13:11.766Z,99409.72
2022-09-12T19:15:41.363Z,99411.25
2022-09-12T19:18:08.769Z,99399.22
2022-09-12T19:20:36.602Z,99404.28
2022-09-12T19:23:03.128Z,99406.50
2022-09-12T19:25:29.677Z,99409.72
2022-09-12T19:27:56.199Z,99406.72
2022-09-12T19:30:22.716Z,99406.22
2022-09-12T19:32:49.199Z,99405.59
2022-09-12T19:35:15.857Z,99407.63
2022-09-12T19:37:42.362Z,99404.25
2022-09-12T19:40:09.258Z,99396.56
2022-09-12T19:42:35.851Z,99393.22
2022-09-12T19:45:02.405Z,99399.78
2022-09-12T19:47:29.423Z,99393.91
2022-09-12T19:49:55.917Z,99399.66
2022-09-12T19:52:22.476Z,99392.13
2022-09-12T19:54:49.004Z,99388.97
2022-09-12T19:57:15.502Z,99383.09
2022-09-12T19:59:42.067Z,99379.13
2022-09-12T20:02:08.679Z,99387.53
2022-09-12T20:04:35.306Z,99384.50
2022-09-12T20:07:01.874Z,99386.69
2022-09-12T20:09:28.337Z,99380.00
2022-09-12T20:11:54.843Z,99365.47
2022-09-12T20:14:22.225Z,99370.31
2022-09-12T20:16:48.727Z,99365.28
2022-09-12T20:19:15.195Z,99364.00
2022-09-12T20:21:41.744Z,99366.16
2022-09-12T20:24:13.688Z,99359.66
2022-09-12T20:26:40.877Z,99364.19
2022-09-12T20:29:08.283Z,99358.00
2022-09-12T20:31:36.831Z,99349.31
2022-09-12T20:34:04.595Z,99346.44
2022-09-12T20:36:31.196Z,99345.59
2022-09-12T20:39:02.598Z,99347.44
2022-09-12T20:41:31.389Z,99343.78
2022-09-12T20:43:58.067Z,99341.09
2022-09-12T20:46:26.290Z,99345.44
2022-09-12T20:48:52.936Z,99340.88
2022-09-12T20:51:21.147Z,99337.22
2022-09-12T20:53:48.600Z,99328.16
2022-09-12T20:56:15.310Z,99322.63
2022-09-12T20:58:44.285Z,99314.22
2022-09-12T21:01:12.695Z,99304.34
2022-09-12T21:03:40.168Z,99297.97
2022-09-12T21:06:08.119Z,99302.50
2022-09-12T21:08:35.726Z,99307.88
2022-09-12T21:11:02.880Z,99313.41
2022-09-12T21:13:29.519Z,99310.03
2022-09-12T21:16:24.260Z,99311.41
2022-09-12T21:18:56.721Z,99297.00
2022-09-12T21:21:23.866Z,99293.47
2022-09-12T21:23:55.280Z,99282.13
2022-09-12T21:26:21.808Z,99286.81
2022-09-12T21:28:48.418Z,99288.00
2022-09-12T21:31:15.122Z,99281.13
2022-09-12T21:33:41.729Z,99271.78
2022-09-12T21:36:08.847Z,99274.63
2022-09-12T21:38:35.399Z,99284.69
2022-09-12T21:41:06.673Z,99272.81
2022-09-12T21:43:33.403Z,99282.03
2022-09-12T21:46:01.214Z,99295.78
2022-09-12T21:48:28.221Z,99288.09
2022-09-12T21:50:54.923Z,99288.25
2022-09-12T21:53:21.577Z,99282.25
2022-09-12T21:55:48.297Z,99282.25
2022-09-12T21:58:14.782Z,99279.72
2022-09-12T22:00:42.287Z,99270.84
2022-09-12T22:03:10.419Z,99274.72
2022-09-12T22:05:40.138Z,99270.38
2022-09-12T22:08:08.017Z,99266.84
2022-09-12T22:10:35.480Z,99270.53
2022-09-12T22:13:02.424Z,99271.38
2022-09-12T22:15:44.106Z,99266.84
2022-09-12T22:18:10.827Z,99271.22
2022-09-12T22:20:37.376Z,99274.72
2022-09-12T22:23:24.786Z,99269.34
2022-09-12T22:25:55.195Z,99270.19
2022-09-12T22:28:21.710Z,99271.88
2022-09-12T22:30:48.756Z,99272.88
2022-09-12T22:33:15.338Z,99268.53
2022-09-12T22:35:42.500Z,99266.84
2022-09-12T22:38:09.233Z,99261.47
2022-09-12T22:40:35.826Z,99260.66
2022-09-12T22:43:02.414Z,99267.69
2022-09-12T22:45:28.954Z,99273.91
2022-09-12T22:47:59.182Z,99268.53
2022-09-12T22:50:27.635Z,99258.00
2022-09-12T22:52:54.185Z,99265.00
2022-09-12T22:55:20.677Z,99261.47
2022-09-12T22:57:47.309Z,99259.81
2022-09-12T23:00:14.926Z,99263.50
2022-09-12T23:02:41.502Z,99260.84
2022-09-12T23:05:08.326Z,99258.50
2022-09-12T23:07:34.840Z,99255.97
2022-09-12T23:10:01.386Z,99252.63
2022-09-12T23:12:27.901Z,99259.16
2022-09-12T23:14:54.367Z,99253.97
2022-09-12T23:17:20.894Z,99257.69
2022-09-12T23:19:47.423Z,99251.63
2022-09-12T23:22:14.018Z,99253.50
2022-09-12T23:24:40.494Z,99244.78
2022-09-12T23:27:07.162Z,99250.16
2022-09-12T23:29:35.411Z,99259.19
2022-09-12T23:32:03.509Z,99262.03
2022-09-12T23:34:30.092Z,99263.88
2022-09-12T23:36:56.893Z,99270.06
2022-09-12T23:39:23.469Z,99263.06
2022-09-12T23:41:50.527Z,99258.34
2022-09-12T23:44:17.023Z,99261.88
2022-09-12T23:46:43.603Z,99257.34
2022-09-12T23:49:10.083Z,99267.88
2022-09-12T23:51:36.757Z,99257.16
2022-09-12T23:54:03.385Z,99251.81
2022-09-12T23:56:29.969Z,99249.13
2022-09-12T23:58:56.436Z,99254.31
